sensor_id;sensor_type;location;lat;lon;timestamp;P1;durP1;ratioP1;P2;durP2;ratioP2
21501;SDS011;27639;48.674;9.242;2022-12-07T00:01:04;8.35;;;5.97;;
21501;SDS011;27639;48.674;9.242;2022-12-07T00:03:34;8.17;;;6.37;;
21501;SDS011;27639;48.674;9.242;2022-12-07T00:06:00;8.77;;;6.00;;
21501;SDS011;27639;48.674;9.242;2022-12-07T00:08:27;7.97;;;5.40;;
21501;SDS011;27639;48.674;9.242;2022-12-07T00:10:52;7.68;;;5.38;;
21501;SDS011;27639;48.674;9.242;2022-12-07T00:13:18;8.88;;;6.18;;
21501;SDS011;27639;48.674;9.242;2022-12-07T00:15:44;8.23;;;5.40;;
21501;SDS011;27639;48.674;9.242;2022-12-07T00:18:10;7.93;;;5.43;;
21501;SDS011;27639;48.674;9.242;2022-12-07T00:20:35;9.10;;;5.70;;
21501;SDS011;27639;48.674;9.242;2022-12-07T00:23:01;8.85;;;5.65;;
21501;SDS011;27639;48.674;9.242;2022-12-07T00:25:27;8.70;;;6.03;;
21501;SDS011;27639;48.674;9.242;2022-12-07T00:27:53;9.02;;;5.90;;
21501;SDS011;27639;48.674;9.242;2022-12-07T00:30:21;9.15;;;6.07;;
21501;SDS011;27639;48.674;9.242;2022-12-07T00:32:47;9.00;;;5.75;;
21501;SDS011;27639;48.674;9.242;2022-12-07T00:35:13;10.02;;;6.30;;
21501;SDS011;27639;48.674;9.242;2022-12-07T00:37:39;12.55;;;6.53;;
21501;SDS011;27639;48.674;9.242;2022-12-07T00:40:04;9.32;;;6.03;;
21501;SDS011;27639;48.674;9.242;2022-12-07T00:42:31;6.95;;;5.75;;
21501;SDS011;27639;48.674;9.242;2022-12-07T00:44:56;8.40;;;5.82;;
21501;SDS011;27639;48.674;9.242;2022-12-07T00:47:22;9.00;;;5.63;;
21501;SDS011;27639;48.674;9.242;2022-12-07T00:49:47;8.90;;;6.13;;
21501;SDS011;27639;48.674;9.242;2022-12-07T00:52:13;9.45;;;6.07;;
21501;SDS011;27639;48.674;9.242;2022-12-07T00:54:39;9.23;;;6.30;;
21501;SDS011;27639;48.674;9.242;2022-12-07T00:57:05;8.52;;;6.68;;
21501;SDS011;27639;48.674;9.242;2022-12-07T00:59:30;9.20;;;6.18;;
21501;SDS011;27639;48.674;9.242;2022-12-07T01:01:56;9.32;;;6.07;;
21501;SDS011;27639;48.674;9.242;2022-12-07T01:04:21;9.25;;;6.65;;
21501;SDS011;27639;48.674;9.242;2022-12-07T01:06:47;9.27;;;6.80;;
21501;SDS011;27639;48.674;9.242;2022-12-07T01:09:12;8.68;;;6.50;;
21501;SDS011;27639;48.674;9.242;2022-12-07T01:11:38;9.50;;;7.00;;
21501;SDS011;27639;48.674;9.242;2022-12-07T01:14:04;8.85;;;6.55;;
21501;SDS011;27639;48.674;9.242;2022-12-07T01:16:30;9.52;;;6.47;;
21501;SDS011;27639;48.674;9.242;2022-12-07T01:18:57;8.65;;;6.20;;
21501;SDS011;27639;48.674;9.242;2022-12-07T01:21:24;9.02;;;6.90;;
21501;SDS011;27639;48.674;9.242;2022-12-07T01:23:52;8.88;;;6.60;;
21501;SDS011;27639;48.674;9.242;2022-12-07T01:26:18;10.48;;;6.95;;
21501;SDS011;27639;48.674;9.242;2022-12-07T01:28:45;10.32;;;6.85;;
21501;SDS011;27639;48.674;9.242;2022-12-07T01:31:19;9.85;;;6.70;;
21501;SDS011;27639;48.674;9.242;2022-12-07T01:33:46;8.57;;;6.22;;
21501;SDS011;27639;48.674;9.242;2022-12-07T01:36:16;9.55;;;6.63;;
21501;SDS011;27639;48.674;9.242;2022-12-07T01:38:43;10.15;;;7.22;;
21501;SDS011;27639;48.674;9.242;2022-12-07T01:41:10;9.82;;;7.28;;
21501;SDS011;27639;48.674;9.242;2022-12-07T01:43:36;8.70;;;6.95;;
21501;SDS011;27639;48.674;9.242;2022-12-07T01:46:02;10.77;;;7.72;;
21501;SDS011;27639;48.674;9.242;2022-12-07T01:48:36;11.93;;;8.90;;
21501;SDS011;27639;48.674;9.242;2022-12-07T01:51:06;12.40;;;7.82;;
21501;SDS011;27639;48.674;9.242;2022-12-07T01:53:35;13.52;;;8.85;;
21501;SDS011;27639;48.674;9.242;2022-12-07T01:56:03;13.27;;;8.32;;
21501;SDS011;27639;48.674;9.242;2022-12-07T01:58:29;13.13;;;9.35;;
21501;SDS011;27639;48.674;9.242;2022-12-07T02:00:55;12.82;;;8.63;;
21501;SDS011;27639;48.674;9.242;2022-12-07T02:03:25;11.85;;;8.27;;
21501;SDS011;27639;48.674;9.242;2022-12-07T02:08:21;12.07;;;8.32;;
21501;SDS011;27639;48.674;9.242;2022-12-07T02:10:47;11.05;;;7.55;;
21501;SDS011;27639;48.674;9.242;2022-12-07T02:13:16;11.05;;;8.02;;
21501;SDS011;27639;48.674;9.242;2022-12-07T02:15:59;11.55;;;8.27;;
21501;SDS011;27639;48.674;9.242;2022-12-07T02:31:43;14.38;;;8.90;;
21501;SDS011;27639;48.674;9.242;2022-12-07T02:34:34;14.50;;;9.10;;
21501;SDS011;27639;48.674;9.242;2022-12-07T02:40:04;13.20;;;9.10;;
21501;SDS011;27639;48.674;9.242;2022-12-07T02:43:03;12.27;;;8.65;;
21501;SDS011;27639;48.674;9.242;2022-12-07T02:45:36;13.35;;;9.73;;
21501;SDS011;27639;48.674;9.242;2022-12-07T02:48:05;12.63;;;8.60;;
21501;SDS011;27639;48.674;9.242;2022-12-07T02:50:33;13.48;;;9.82;;
21501;SDS011;27639;48.674;9.242;2022-12-07T02:52:59;13.27;;;9.13;;
21501;SDS011;27639;48.674;9.242;2022-12-07T02:55:26;12.60;;;9.35;;
21501;SDS011;27639;48.674;9.242;2022-12-07T03:00:52;13.00;;;9.07;;
21501;SDS011;27639;48.674;9.242;2022-12-07T03:03:26;11.20;;;7.72;;
21501;SDS011;27639;48.674;9.242;2022-12-07T03:05:57;12.73;;;8.88;;
21501;SDS011;27639;48.674;9.242;2022-12-07T03:13:37;11.57;;;8.18;;
21501;SDS011;27639;48.674;9.242;2022-12-07T03:16:22;11.18;;;7.82;;
21501;SDS011;27639;48.674;9.242;2022-12-07T03:18:59;11.50;;;7.90;;
21501;SDS011;27639;48.674;9.242;2022-12-07T03:21:38;12.18;;;8.45;;
21501;SDS011;27639;48.674;9.242;2022-12-07T03:24:08;13.55;;;8.63;;
21501;SDS011;27639;48.674;9.242;2022-12-07T03:26:41;14.50;;;9.57;;
21501;SDS011;27639;48.674;9.242;2022-12-07T03:29:12;12.18;;;8.68;;
21501;SDS011;27639;48.674;9.242;2022-12-07T03:31:54;12.48;;;8.60;;
21501;SDS011;27639;48.674;9.242;2022-12-07T03:34:44;13.35;;;8.82;;
21501;SDS011;27639;48.674;9.242;2022-12-07T03:37:16;12.80;;;8.43;;
21501;SDS011;27639;48.674;9.242;2022-12-07T03:42:35;13.93;;;10.13;;
21501;SDS011;27639;48.674;9.242;2022-12-07T03:45:01;12.55;;;9.20;;
21501;SDS011;27639;48.674;9.242;2022-12-07T03:47:37;13.15;;;9.27;;
21501;SDS011;27639;48.674;9.242;2022-12-07T03:58:00;12.20;;;8.23;;
21501;SDS011;27639;48.674;9.242;2022-12-07T04:00:30;11.60;;;7.90;;
21501;SDS011;27639;48.674;9.242;2022-12-07T04:02:56;11.52;;;7.88;;
21501;SDS011;27639;48.674;9.242;2022-12-07T04:05:21;11.60;;;8.57;;
21501;SDS011;27639;48.674;9.242;2022-12-07T04:07:47;11.68;;;8.52;;
21501;SDS011;27639;48.674;9.242;2022-12-07T04:10:13;10.65;;;7.80;;
21501;SDS011;27639;48.674;9.242;2022-12-07T04:12:39;11.32;;;7.80;;
21501;SDS011;27639;48.674;9.242;2022-12-07T04:15:05;12.18;;;8.43;;
21501;SDS011;27639;48.674;9.242;2022-12-07T04:17:31;11.50;;;7.93;;
21501;SDS011;27639;48.674;9.242;2022-12-07T04:19:57;10.50;;;7.78;;
21501;SDS011;27639;48.674;9.242;2022-12-07T04:22:22;11.63;;;8.25;;
21501;SDS011;27639;48.674;9.242;2022-12-07T04:24:48;11.52;;;8.63;;
21501;SDS011;27639;48.674;9.242;2022-12-07T04:27:13;12.05;;;8.38;;
21501;SDS011;27639;48.674;9.242;2022-12-07T04:29:39;12.00;;;8.05;;
21501;SDS011;27639;48.674;9.242;2022-12-07T04:32:05;12.57;;;8.88;;
21501;SDS011;27639;48.674;9.242;2022-12-07T04:34:31;14.20;;;9.63;;
21501;SDS011;27639;48.674;9.242;2022-12-07T04:36:56;12.82;;;9.57;;
21501;SDS011;27639;48.674;9.242;2022-12-07T04:41:49;13.27;;;9.40;;
21501;SDS011;27639;48.674;9.242;2022-12-07T04:44:14;12.13;;;8.20;;
21501;SDS011;27639;48.674;9.242;2022-12-07T04:46:41;11.30;;;8.30;;
21501;SDS011;27639;48.674;9.242;2022-12-07T04:49:08;12.57;;;8.55;;
21501;SDS011;27639;48.674;9.242;2022-12-07T04:51:34;12.88;;;9.07;;
21501;SDS011;27639;48.674;9.242;2022-12-07T04:53:59;13.77;;;8.60;;
21501;SDS011;27639;48.674;9.242;2022-12-07T04:56:25;12.73;;;8.40;;
21501;SDS011;27639;48.674;9.242;2022-12-07T04:58:51;12.23;;;8.25;;
21501;SDS011;27639;48.674;9.242;2022-12-07T05:01:18;11.32;;;7.90;;
21501;SDS011;27639;48.674;9.242;2022-12-07T05:03:44;12.02;;;8.73;;
21501;SDS011;27639;48.674;9.242;2022-12-07T05:06:10;11.55;;;7.60;;
21501;SDS011;27639;48.674;9.242;2022-12-07T05:08:36;12.77;;;7.75;;
21501;SDS011;27639;48.674;9.242;2022-12-07T05:11:03;12.00;;;9.18;;
21501;SDS011;27639;48.674;9.242;2022-12-07T05:13:29;11.20;;;7.63;;
21501;SDS011;27639;48.674;9.242;2022-12-07T05:15:55;11.63;;;8.35;;
21501;SDS011;27639;48.674;9.242;2022-12-07T05:18:21;11.80;;;8.02;;
21501;SDS011;27639;48.674;9.242;2022-12-07T05:20:46;11.70;;;8.07;;
21501;SDS011;27639;48.674;9.242;2022-12-07T05:23:12;12.65;;;8.70;;
21501;SDS011;27639;48.674;9.242;2022-12-07T05:25:38;12.40;;;8.15;;
21501;SDS011;27639;48.674;9.242;2022-12-07T05:28:04;11.73;;;8.02;;
21501;SDS011;27639;48.674;9.242;2022-12-07T05:30:30;19.45;;;16.55;;
21501;SDS011;27639;48.674;9.242;2022-12-07T05:32:56;15.10;;;10.27;;
21501;SDS011;27639;48.674;9.242;2022-12-07T05:35:22;12.27;;;8.27;;
21501;SDS011;27639;48.674;9.242;2022-12-07T05:37:47;13.90;;;9.32;;
21501;SDS011;27639;48.674;9.242;2022-12-07T05:40:14;12.00;;;8.07;;
21501;SDS011;27639;48.674;9.242;2022-12-07T05:42:40;12.98;;;9.50;;
21501;SDS011;27639;48.674;9.242;2022-12-07T05:45:06;13.68;;;9.30;;
21501;SDS011;27639;48.674;9.242;2022-12-07T05:47:33;12.63;;;8.93;;
21501;SDS011;27639;48.674;9.242;2022-12-07T05:49:58;12.93;;;8.13;;
21501;SDS011;27639;48.674;9.242;2022-12-07T05:52:24;12.45;;;9.88;;
21501;SDS011;27639;48.674;9.242;2022-12-07T05:54:49;11.18;;;8.82;;
21501;SDS011;27639;48.674;9.242;2022-12-07T05:57:15;13.32;;;9.15;;
21501;SDS011;27639;48.674;9.242;2022-12-07T05:59:41;12.13;;;8.13;;
21501;SDS011;27639;48.674;9.242;2022-12-07T06:02:08;13.55;;;8.55;;
21501;SDS011;27639;48.674;9.242;2022-12-07T06:04:36;12.15;;;8.63;;
21501;SDS011;27639;48.674;9.242;2022-12-07T06:07:04;12.85;;;8.32;;
21501;SDS011;27639;48.674;9.242;2022-12-07T06:09:30;11.88;;;8.07;;
21501;SDS011;27639;48.674;9.242;2022-12-07T06:11:56;14.13;;;8.13;;
21501;SDS011;27639;48.674;9.242;2022-12-07T06:14:41;11.90;;;8.18;;
21501;SDS011;27639;48.674;9.242;2022-12-07T06:17:07;13.20;;;8.15;;
21501;SDS011;27639;48.674;9.242;2022-12-07T06:19:33;13.23;;;9.27;;
21501;SDS011;27639;48.674;9.242;2022-12-07T06:21:58;16.58;;;8.75;;
21501;SDS011;27639;48.674;9.242;2022-12-07T06:24:24;12.00;;;8.57;;
21501;SDS011;27639;48.674;9.242;2022-12-07T06:26:50;12.88;;;8.77;;
21501;SDS011;27639;48.674;9.242;2022-12-07T06:29:16;12.85;;;8.45;;
21501;SDS011;27639;48.674;9.242;2022-12-07T06:31:42;12.77;;;9.18;;
21501;SDS011;27639;48.674;9.242;2022-12-07T06:34:09;12.45;;;8.52;;
21501;SDS011;27639;48.674;9.242;2022-12-07T06:36:37;13.77;;;9.40;;
21501;SDS011;27639;48.674;9.242;2022-12-07T06:39:03;12.90;;;8.43;;
21501;SDS011;27639;48.674;9.242;2022-12-07T06:41:29;14.35;;;9.40;;
21501;SDS011;27639;48.674;9.242;2022-12-07T06:43:54;14.73;;;9.30;;
21501;SDS011;27639;48.674;9.242;2022-12-07T06:46:20;14.02;;;9.55;;
21501;SDS011;27639;48.674;9.242;2022-12-07T06:48:46;13.00;;;9.02;;
21501;SDS011;27639;48.674;9.242;2022-12-07T06:51:11;10.63;;;7.65;;
21501;SDS011;27639;48.674;9.242;2022-12-07T06:53:37;11.27;;;8.20;;
21501;SDS011;27639;48.674;9.242;2022-12-07T06:56:03;12.13;;;7.95;;
21501;SDS011;27639;48.674;9.242;2022-12-07T06:58:29;11.70;;;8.75;;
21501;SDS011;27639;48.674;9.242;2022-12-07T07:00:55;13.30;;;8.70;;
21501;SDS011;27639;48.674;9.242;2022-12-07T07:03:21;11.88;;;8.50;;
21501;SDS011;27639;48.674;9.242;2022-12-07T07:05:46;10.82;;;7.78;;
21501;SDS011;27639;48.674;9.242;2022-12-07T07:08:12;10.85;;;7.75;;
21501;SDS011;27639;48.674;9.242;2022-12-07T07:10:38;11.80;;;7.72;;
21501;SDS011;27639;48.674;9.242;2022-12-07T07:13:04;11.77;;;7.13;;
21501;SDS011;27639;48.674;9.242;2022-12-07T07:15:31;12.05;;;8.02;;
21501;SDS011;27639;48.674;9.242;2022-12-07T07:17:57;11.73;;;7.15;;
21501;SDS011;27639;48.674;9.242;2022-12-07T07:20:22;9.10;;;6.70;;
21501;SDS011;27639;48.674;9.242;2022-12-07T07:22:48;11.18;;;7.40;;
21501;SDS011;27639;48.674;9.242;2022-12-07T07:25:14;10.38;;;7.47;;
21501;SDS011;27639;48.674;9.242;2022-12-07T07:27:40;12.10;;;7.65;;
21501;SDS011;27639;48.674;9.242;2022-12-07T07:30:06;12.45;;;8.43;;
21501;SDS011;27639;48.674;9.242;2022-12-07T07:32:32;12.65;;;9.27;;
21501;SDS011;27639;48.674;9.242;2022-12-07T07:34:58;11.20;;;7.75;;
21501;SDS011;27639;48.674;9.242;2022-12-07T07:37:24;10.07;;;7.45;;
21501;SDS011;27639;48.674;9.242;2022-12-07T07:39:50;11.23;;;7.80;;
21501;SDS011;27639;48.674;9.242;2022-12-07T07:42:15;11.30;;;8.18;;
21501;SDS011;27639;48.674;9.242;2022-12-07T07:44:41;12.38;;;8.73;;
21501;SDS011;27639;48.674;9.242;2022-12-07T07:47:06;10.77;;;7.75;;
21501;SDS011;27639;48.674;9.242;2022-12-07T07:49:32;11.38;;;8.30;;
21501;SDS011;27639;48.674;9.242;2022-12-07T07:51:58;11.60;;;8.45;;
21501;SDS011;27639;48.674;9.242;2022-12-07T07:54:23;10.30;;;7.43;;
21501;SDS011;27639;48.674;9.242;2022-12-07T07:56:49;10.57;;;7.35;;
21501;SDS011;27639;48.674;9.242;2022-12-07T07:59:15;11.98;;;8.18;;
21501;SDS011;27639;48.674;9.242;2022-12-07T08:01:41;12.45;;;8.20;;
21501;SDS011;27639;48.674;9.242;2022-12-07T08:04:07;12.85;;;7.47;;
21501;SDS011;27639;48.674;9.242;2022-12-07T08:06:32;10.70;;;7.60;;
21501;SDS011;27639;48.674;9.242;2022-12-07T08:08:58;10.15;;;7.38;;
21501;SDS011;27639;48.674;9.242;2022-12-07T08:11:24;12.43;;;7.65;;
21501;SDS011;27639;48.674;9.242;2022-12-07T08:13:50;11.77;;;7.63;;
21501;SDS011;27639;48.674;9.242;2022-12-07T08:16:16;10.52;;;7.68;;
21501;SDS011;27639;48.674;9.242;2022-12-07T08:18:42;13.07;;;7.90;;
21501;SDS011;27639;48.674;9.242;2022-12-07T08:21:09;10.57;;;7.40;;
21501;SDS011;27639;48.674;9.242;2022-12-07T08:23:37;11.30;;;7.97;;
21501;SDS011;27639;48.674;9.242;2022-12-07T08:26:04;11.75;;;8.23;;
21501;SDS011;27639;48.674;9.242;2022-12-07T08:28:31;10.98;;;8.52;;
21501;SDS011;27639;48.674;9.242;2022-12-07T08:31:30;13.27;;;8.63;;
21501;SDS011;27639;48.674;9.242;2022-12-07T08:33:49;13.20;;;8.93;;
21501;SDS011;27639;48.674;9.242;2022-12-07T08:36:15;12.93;;;9.75;;
21501;SDS011;27639;48.674;9.242;2022-12-07T08:38:41;11.02;;;8.05;;
21501;SDS011;27639;48.674;9.242;2022-12-07T08:41:07;12.15;;;8.75;;
21501;SDS011;27639;48.674;9.242;2022-12-07T08:43:33;12.25;;;8.55;;
21501;SDS011;27639;48.674;9.242;2022-12-07T08:48:34;13.57;;;8.18;;
21501;SDS011;27639;48.674;9.242;2022-12-07T08:51:02;11.75;;;7.60;;
21501;SDS011;27639;48.674;9.242;2022-12-07T08:53:28;10.20;;;7.90;;
21501;SDS011;27639;48.674;9.242;2022-12-07T08:55:54;10.60;;;7.82;;
21501;SDS011;27639;48.674;9.242;2022-12-07T08:58:21;11.50;;;7.93;;
21501;SDS011;27639;48.674;9.242;2022-12-07T09:00:47;9.75;;;6.97;;
21501;SDS011;27639;48.674;9.242;2022-12-07T09:03:12;9.48;;;6.68;;
21501;SDS011;27639;48.674;9.242;2022-12-07T09:05:38;9.60;;;7.15;;
21501;SDS011;27639;48.674;9.242;2022-12-07T09:08:04;8.63;;;6.38;;
21501;SDS011;27639;48.674;9.242;2022-12-07T09:10:30;9.15;;;6.07;;
21501;SDS011;27639;48.674;9.242;2022-12-07T09:12:56;9.25;;;6.03;;
21501;SDS011;27639;48.674;9.242;2022-12-07T09:15:25;8.15;;;5.82;;
21501;SDS011;27639;48.674;9.242;2022-12-07T09:17:54;8.38;;;5.82;;
21501;SDS011;27639;48.674;9.242;2022-12-07T09:20:20;8.52;;;5.63;;
21501;SDS011;27639;48.674;9.242;2022-12-07T09:22:46;9.75;;;5.93;;
21501;SDS011;27639;48.674;9.242;2022-12-07T09:25:11;9.02;;;6.20;;
21501;SDS011;27639;48.674;9.242;2022-12-07T09:27:37;9.82;;;6.32;;
21501;SDS011;27639;48.674;9.242;2022-12-07T09:30:03;9.82;;;6.20;;
21501;SDS011;27639;48.674;9.242;2022-12-07T09:32:30;8.63;;;5.78;;
21501;SDS011;27639;48.674;9.242;2022-12-07T09:34:56;9.20;;;6.80;;
21501;SDS011;27639;48.674;9.242;2022-12-07T09:37:21;9.77;;;6.32;;
21501;SDS011;27639;48.674;9.242;2022-12-07T09:39:47;9.98;;;6.57;;
21501;SDS011;27639;48.674;9.242;2022-12-07T09:42:36;8.68;;;5.97;;
21501;SDS011;27639;48.674;9.242;2022-12-07T09:45:01;9.80;;;6.38;;
21501;SDS011;27639;48.674;9.242;2022-12-07T09:47:29;9.07;;;6.00;;
21501;SDS011;27639;48.674;9.242;2022-12-07T09:50:03;8.68;;;5.88;;
21501;SDS011;27639;48.674;9.242;2022-12-07T09:52:31;7.50;;;4.88;;
21501;SDS011;27639;48.674;9.242;2022-12-07T09:54:57;9.48;;;5.13;;
21501;SDS011;27639;48.674;9.242;2022-12-07T09:57:32;7.60;;;5.55;;
21501;SDS011;27639;48.674;9.242;2022-12-07T10:00:01;11.27;;;5.90;;
21501;SDS011;27639;48.674;9.242;2022-12-07T10:02:39;8.50;;;5.82;;
21501;SDS011;27639;48.674;9.242;2022-12-07T10:05:10;9.05;;;6.00;;
21501;SDS011;27639;48.674;9.242;2022-12-07T10:07:39;9.98;;;6.60;;
21501;SDS011;27639;48.674;9.242;2022-12-07T10:10:29;11.57;;;6.60;;
21501;SDS011;27639;48.674;9.242;2022-12-07T10:12:58;8.38;;;5.93;;
21501;SDS011;27639;48.674;9.242;2022-12-07T10:18:21;7.65;;;5.47;;
21501;SDS011;27639;48.674;9.242;2022-12-07T10:24:21;7.22;;;4.70;;
21501;SDS011;27639;48.674;9.242;2022-12-07T10:31:57;8.88;;;5.43;;
21501;SDS011;27639;48.674;9.242;2022-12-07T10:34:29;7.18;;;4.68;;
21501;SDS011;27639;48.674;9.242;2022-12-07T10:44:44;8.93;;;5.50;;
21501;SDS011;27639;48.674;9.242;2022-12-07T10:47:21;9.18;;;5.53;;
21501;SDS011;27639;48.674;9.242;2022-12-07T10:56:00;7.88;;;5.25;;
21501;SDS011;27639;48.674;9.242;2022-12-07T10:58:45;8.05;;;4.85;;
21501;SDS011;27639;48.674;9.242;2022-12-07T11:03:53;8.15;;;5.15;;
21501;SDS011;27639;48.674;9.242;2022-12-07T11:06:34;9.45;;;5.45;;
21501;SDS011;27639;48.674;9.242;2022-12-07T11:15:29;7.45;;;4.72;;
21501;SDS011;27639;48.674;9.242;2022-12-07T11:21:09;7.40;;;4.30;;
21501;SDS011;27639;48.674;9.242;2022-12-07T11:23:48;6.68;;;4.70;;
21501;SDS011;27639;48.674;9.242;2022-12-07T11:28:59;8.35;;;5.07;;
21501;SDS011;27639;48.674;9.242;2022-12-07T11:31:45;6.88;;;4.30;;
21501;SDS011;27639;48.674;9.242;2022-12-07T11:34:19;8.40;;;4.85;;
21501;SDS011;27639;48.674;9.242;2022-12-07T11:37:02;7.55;;;5.10;;
21501;SDS011;27639;48.674;9.242;2022-12-07T11:39:39;7.10;;;4.72;;
21501;SDS011;27639;48.674;9.242;2022-12-07T11:42:16;8.23;;;4.97;;
21501;SDS011;27639;48.674;9.242;2022-12-07T11:44:52;7.68;;;5.40;;
21501;SDS011;27639;48.674;9.242;2022-12-07T11:50:31;8.82;;;4.40;;
21501;SDS011;27639;48.674;9.242;2022-12-07T11:52:59;8.75;;;5.82;;
21501;SDS011;27639;48.674;9.242;2022-12-07T11:55:30;6.63;;;4.10;;
21501;SDS011;27639;48.674;9.242;2022-12-07T11:58:03;7.88;;;4.80;;
21501;SDS011;27639;48.674;9.242;2022-12-07T12:00:39;9.05;;;5.20;;
21501;SDS011;27639;48.674;9.242;2022-12-07T12:03:10;8.15;;;4.85;;
21501;SDS011;27639;48.674;9.242;2022-12-07T12:05:41;8.43;;;5.03;;
21501;SDS011;27639;48.674;9.242;2022-12-07T12:08:17;6.97;;;4.18;;
21501;SDS011;27639;48.674;9.242;2022-12-07T12:11:03;8.18;;;4.63;;
21501;SDS011;27639;48.674;9.242;2022-12-07T12:22:39;9.70;;;4.45;;
21501;SDS011;27639;48.674;9.242;2022-12-07T12:25:22;7.55;;;4.90;;
21501;SDS011;27639;48.674;9.242;2022-12-07T12:27:48;7.50;;;4.60;;
21501;SDS011;27639;48.674;9.242;2022-12-07T12:30:50;8.25;;;4.53;;
21501;SDS011;27639;48.674;9.242;2022-12-07T12:33:13;7.40;;;4.63;;
21501;SDS011;27639;48.674;9.242;2022-12-07T12:38:48;6.88;;;4.28;;
21501;SDS011;27639;48.674;9.242;2022-12-07T12:46:57;7.65;;;4.35;;
21501;SDS011;27639;48.674;9.242;2022-12-07T12:52:56;7.72;;;4.35;;
21501;SDS011;27639;48.674;9.242;2022-12-07T12:58:21;6.57;;;4.53;;
21501;SDS011;27639;48.674;9.242;2022-12-07T13:04:00;6.28;;;4.07;;
21501;SDS011;27639;48.674;9.242;2022-12-07T13:08:53;7.70;;;4.63;;
21501;SDS011;27639;48.674;9.242;2022-12-07T13:11:29;7.68;;;4.90;;
21501;SDS011;27639;48.674;9.242;2022-12-07T13:17:10;7.35;;;4.55;;
21501;SDS011;27639;48.674;9.242;2022-12-07T13:25:02;7.93;;;4.80;;
21501;SDS011;27639;48.674;9.242;2022-12-07T13:27:36;8.77;;;4.25;;
21501;SDS011;27639;48.674;9.242;2022-12-07T13:30:07;7.18;;;3.90;;
21501;SDS011;27639;48.674;9.242;2022-12-07T13:32:42;7.45;;;3.90;;
21501;SDS011;27639;48.674;9.242;2022-12-07T13:37:58;7.05;;;4.10;;
21501;SDS011;27639;48.674;9.242;2022-12-07T13:40:26;7.75;;;4.15;;
21501;SDS011;27639;48.674;9.242;2022-12-07T13:42:59;7.97;;;4.93;;
21501;SDS011;27639;48.674;9.242;2022-12-07T13:45:29;6.35;;;4.45;;
21501;SDS011;27639;48.674;9.242;2022-12-07T13:48:28;6.03;;;3.97;;
21501;SDS011;27639;48.674;9.242;2022-12-07T13:50:55;7.40;;;4.40;;
21501;SDS011;27639;48.674;9.242;2022-12-07T13:53:22;6.55;;;4.22;;
21501;SDS011;27639;48.674;9.242;2022-12-07T13:55:48;7.18;;;4.15;;
21501;SDS011;27639;48.674;9.242;2022-12-07T13:58:15;6.63;;;4.18;;
21501;SDS011;27639;48.674;9.242;2022-12-07T14:00:41;7.28;;;4.43;;
21501;SDS011;27639;48.674;9.242;2022-12-07T14:05:42;5.85;;;3.80;;
21501;SDS011;27639;48.674;9.242;2022-12-07T14:10:56;5.90;;;4.10;;
21501;SDS011;27639;48.674;9.242;2022-12-07T14:16:05;6.43;;;3.97;;
21501;SDS011;27639;48.674;9.242;2022-12-07T14:18:42;6.82;;;3.55;;
21501;SDS011;27639;48.674;9.242;2022-12-07T14:21:19;7.32;;;3.85;;
21501;SDS011;27639;48.674;9.242;2022-12-07T14:26:36;6.13;;;3.30;;
21501;SDS011;27639;48.674;9.242;2022-12-07T14:31:54;5.25;;;3.10;;
21501;SDS011;27639;48.674;9.242;2022-12-07T14:34:20;4.45;;;3.10;;
21501;SDS011;27639;48.674;9.242;2022-12-07T14:36:47;6.00;;;3.42;;
21501;SDS011;27639;48.674;9.242;2022-12-07T14:39:12;5.95;;;3.10;;
21501;SDS011;27639;48.674;9.242;2022-12-07T14:41:38;5.47;;;3.55;;
21501;SDS011;27639;48.674;9.242;2022-12-07T14:44:16;6.07;;;3.78;;
21501;SDS011;27639;48.674;9.242;2022-12-07T14:46:46;6.55;;;4.20;;
21501;SDS011;27639;48.674;9.242;2022-12-07T14:49:13;5.00;;;3.28;;
21501;SDS011;27639;48.674;9.242;2022-12-07T14:51:39;5.60;;;3.80;;
21501;SDS011;27639;48.674;9.242;2022-12-07T14:54:06;5.90;;;4.60;;
21501;SDS011;27639;48.674;9.242;2022-12-07T14:56:40;6.07;;;4.20;;
21501;SDS011;27639;48.674;9.242;2022-12-07T14:59:06;7.80;;;5.30;;
21501;SDS011;27639;48.674;9.242;2022-12-07T15:01:33;7.72;;;4.47;;
21501;SDS011;27639;48.674;9.242;2022-12-07T15:03:59;5.82;;;3.75;;
21501;SDS011;27639;48.674;9.242;2022-12-07T15:06:24;6.30;;;4.03;;
21501;SDS011;27639;48.674;9.242;2022-12-07T15:08:50;4.90;;;3.55;;
21501;SDS011;27639;48.674;9.242;2022-12-07T15:11:16;5.13;;;3.70;;
21501;SDS011;27639;48.674;9.242;2022-12-07T15:13:42;5.55;;;3.50;;
21501;SDS011;27639;48.674;9.242;2022-12-07T15:16:27;5.70;;;3.70;;
21501;SDS011;27639;48.674;9.242;2022-12-07T15:18:52;7.18;;;3.88;;
21501;SDS011;27639;48.674;9.242;2022-12-07T15:21:18;6.25;;;3.90;;
21501;SDS011;27639;48.674;9.242;2022-12-07T15:23:43;7.30;;;4.30;;
21501;SDS011;27639;48.674;9.242;2022-12-07T15:26:11;7.20;;;4.50;;
21501;SDS011;27639;48.674;9.242;2022-12-07T15:28:37;6.55;;;4.45;;
21501;SDS011;27639;48.674;9.242;2022-12-07T15:31:02;7.20;;;4.88;;
21501;SDS011;27639;48.674;9.242;2022-12-07T15:33:28;5.82;;;3.97;;
21501;SDS011;27639;48.674;9.242;2022-12-07T15:35:54;5.57;;;4.00;;
21501;SDS011;27639;48.674;9.242;2022-12-07T15:38:19;6.53;;;4.15;;
21501;SDS011;27639;48.674;9.242;2022-12-07T15:40:48;6.85;;;4.43;;
21501;SDS011;27639;48.674;9.242;2022-12-07T15:43:14;8.75;;;4.40;;
21501;SDS011;27639;48.674;9.242;2022-12-07T15:45:58;8.25;;;4.93;;
21501;SDS011;27639;48.674;9.242;2022-12-07T15:48:24;10.27;;;4.88;;
21501;SDS011;27639;48.674;9.242;2022-12-07T15:50:50;7.97;;;5.32;;
21501;SDS011;27639;48.674;9.242;2022-12-07T15:53:15;9.95;;;5.70;;
21501;SDS011;27639;48.674;9.242;2022-12-07T15:55:41;7.90;;;5.15;;
21501;SDS011;27639;48.674;9.242;2022-12-07T15:58:07;8.02;;;5.10;;
21501;SDS011;27639;48.674;9.242;2022-12-07T16:00:32;7.57;;;4.50;;
21501;SDS011;27639;48.674;9.242;2022-12-07T16:02:58;7.97;;;4.65;;
21501;SDS011;27639;48.674;9.242;2022-12-07T16:05:23;8.70;;;4.85;;
21501;SDS011;27639;48.674;9.242;2022-12-07T16:07:49;8.43;;;5.45;;
21501;SDS011;27639;48.674;9.242;2022-12-07T16:10:15;8.68;;;5.20;;
21501;SDS011;27639;48.674;9.242;2022-12-07T16:12:40;6.47;;;4.47;;
21501;SDS011;27639;48.674;9.242;2022-12-07T16:15:06;7.68;;;4.85;;
21501;SDS011;27639;48.674;9.242;2022-12-07T16:17:32;9.23;;;5.20;;
21501;SDS011;27639;48.674;9.242;2022-12-07T16:19:57;8.02;;;5.10;;
21501;SDS011;27639;48.674;9.242;2022-12-07T16:22:23;7.45;;;5.03;;
21501;SDS011;27639;48.674;9.242;2022-12-07T16:24:49;7.35;;;5.10;;
21501;SDS011;27639;48.674;9.242;2022-12-07T16:27:14;7.55;;;4.97;;
21501;SDS011;27639;48.674;9.242;2022-12-07T16:29:41;7.88;;;4.70;;
21501;SDS011;27639;48.674;9.242;2022-12-07T16:32:06;7.03;;;4.57;;
21501;SDS011;27639;48.674;9.242;2022-12-07T16:34:32;7.43;;;4.50;;
21501;SDS011;27639;48.674;9.242;2022-12-07T16:36:57;8.75;;;5.38;;
21501;SDS011;27639;48.674;9.242;2022-12-07T16:39:23;9.25;;;5.63;;
21501;SDS011;27639;48.674;9.242;2022-12-07T16:41:49;8.40;;;5.50;;
21501;SDS011;27639;48.674;9.242;2022-12-07T16:44:15;9.30;;;6.30;;
21501;SDS011;27639;48.674;9.242;2022-12-07T16:46:41;9.52;;;6.13;;
21501;SDS011;27639;48.674;9.242;2022-12-07T16:49:10;10.77;;;7.38;;
21501;SDS011;27639;48.674;9.242;2022-12-07T16:51:37;12.05;;;8.60;;
21501;SDS011;27639;48.674;9.242;2022-12-07T16:54:04;10.30;;;7.57;;
21501;SDS011;27639;48.674;9.242;2022-12-07T16:56:29;12.45;;;8.15;;
21501;SDS011;27639;48.674;9.242;2022-12-07T16:58:57;14.52;;;9.23;;
21501;SDS011;27639;48.674;9.242;2022-12-07T17:01:23;11.98;;;8.30;;
21501;SDS011;27639;48.674;9.242;2022-12-07T17:03:49;11.63;;;7.60;;
21501;SDS011;27639;48.674;9.242;2022-12-07T17:06:22;11.60;;;7.97;;
21501;SDS011;27639;48.674;9.242;2022-12-07T17:08:49;12.93;;;8.65;;